FMST Airport Information

Runway Information
Runway 04 Length 6562 ft width 98 ft
Elevation 16 ft Threshold ft Heading 23
Runway 22 Length 6562 ft Width 98 ft
Elevation 29 ft Threshold ft Heading 203
Runway 11 Length 2625 ft width 42 ft
Elevation 16 ft Threshold ft Heading 88
Runway 29 Length 2625 ft Width 42 ft
Elevation 16 ft Threshold ft Heading 268
Airport Frequencies
Type A/G Name AIR GND Frequency 548.4 MHZ
Type AFIS Name AFIS Frequency 118.6 MHZ
Airport Navaids
Type NDB Name Toliara Frequency 367 KHZ
Airport Weather Information & NOTAM
ADDS - METARS form results

(0905 UTC 27 June 2022)
Data provider http://aviationweather.gov/metar/data/
 
Forecast for: FMST (TULEAR/TOLIARA , MG)
Text: TAF FMST 270500Z 2706/2806 16014KT 9999 FEW023
Forecast period: 0600 UTC 27 June 2022 to 0600 UTC 28 June 2022
Forecast type: FROM: standard forecast or significant change
Winds: from the SSE (160 degrees) at 16 MPH (14 knots; 7.2 m/s)
Visibility: 6 or more miles (10+ km)
Ceiling: at least 12,000 feet AGL
Clouds: few clouds at 2300 feet AGL
Weather: no significant weather forecast for this period